City Of Cleveland — WDC2358 — position and weather

sailwx.info

Track history (hours):
 
Tides and Currents Weather Stations Pressure Air Temp Water Temp Dewpoint Dewpoint Depression Visibility Wind Speed Wind Dir Waves Ship Positions

City Of Cleveland

Owner: JANTRAN, INC., ROSEDALE, MS. More information available from US FCC via Universal Licensing System and Coast Guard Vessel Documentation Center.

Last reported at 2015-Apr-27 11:05 UTC. Time now 2015-Apr-28 10:23 UTC.
Position N 30°04' W 090°51'.

Length 42 m; draft 12.5 m.

Type: Towing. MMSI: 366991810.

Date/timePositionNaut miles runAvg speedWind from/ knotsBaromVisibWave heightAir tempDewpointWater temp
2015-Apr-27 11:05N 30°04' W 090°51'0 0.0
2015-Apr-27 10:15N 30°04' W 090°51'0 0.0
2015-Apr-27 01:24N 30°04' W 090°51'24 4.0
2015-Apr-26 19:25N 30°19' W 091°13'1 1.5
2015-Apr-26 18:24N 30°20' W 091°12'5 5.4
2015-Apr-26 17:33N 30°25' W 091°12'6 6.0
2015-Apr-26 16:33N 30°31' W 091°12'3 3.3
2015-Apr-26 15:33N 30°31' W 091°16'5 5.1
2015-Apr-26 14:33N 30°36' W 091°19'0 0.2
2015-Apr-26 13:33N 30°36' W 091°19'0 0.0
2015-Apr-26 12:33N 30°36' W 091°19'0 0.0
2015-Apr-26 11:33N 30°36' W 091°19'0 0.0
2015-Apr-26 10:33N 30°36' W 091°19'0 0.0
2015-Apr-26 09:33N 30°36' W 091°19'0 0.0
2015-Apr-26 08:33N 30°36' W 091°19'0 0.0
2015-Apr-26 07:33N 30°36' W 091°19'2 2.3
2015-Apr-26 06:33N 30°38' W 091°17'8 7.5
2015-Apr-26 05:29N 30°45' W 091°22'9 7.9
2015-Apr-26 04:18N 30°44' W 091°33'  
2015-Apr-19 14:33N 30°03' W 090°31'0 0.0
2015-Apr-19 13:33N 30°03' W 090°31'19 0.4
2015-Apr-17 14:21N 29°57' W 090°10'3 3.8
2015-Apr-17 13:33N 29°55' W 090°08'5 4.8
2015-Apr-17 12:33N 29°57' W 090°03'3 3.3
2015-Apr-17 11:32N 29°56' W 089°59'  
Track history (hours):
 
Tides and Currents Weather Stations Pressure Air Temp Water Temp Dewpoint Dewpoint Depression Visibility Wind Speed Wind Dir Waves Ship Positions

City Of Cleveland

Owner: JANTRAN, INC., ROSEDALE, MS. More information available from US FCC via Universal Licensing System and Coast Guard Vessel Documentation Center.

Last reported at 2015-Apr-27 11:05 UTC. Time now 2015-Apr-28 10:23 UTC.
Position N 30°04' W 090°51'.

Length 42 m; draft 12.5 m.

Type: Towing. MMSI: 366991810.

Date/timePositionNaut miles runAvg speedWind from/ knotsBaromVisibWave heightAir tempDewpointWater temp
2015-Apr-27 11:05N 30°04' W 090°51'0 0.0
2015-Apr-27 10:15N 30°04' W 090°51'0 0.0
2015-Apr-27 01:24N 30°04' W 090°51'24 4.0
2015-Apr-26 19:25N 30°19' W 091°13'1 1.5
2015-Apr-26 18:24N 30°20' W 091°12'5 5.4
2015-Apr-26 17:33N 30°25' W 091°12'6 6.0
2015-Apr-26 16:33N 30°31' W 091°12'3 3.3
2015-Apr-26 15:33N 30°31' W 091°16'5 5.1
2015-Apr-26 14:33N 30°36' W 091°19'0 0.2
2015-Apr-26 13:33N 30°36' W 091°19'0 0.0
2015-Apr-26 12:33N 30°36' W 091°19'0 0.0
2015-Apr-26 11:33N 30°36' W 091°19'0 0.0
2015-Apr-26 10:33N 30°36' W 091°19'0 0.0
2015-Apr-26 09:33N 30°36' W 091°19'0 0.0
2015-Apr-26 08:33N 30°36' W 091°19'0 0.0
2015-Apr-26 07:33N 30°36' W 091°19'2 2.3
2015-Apr-26 06:33N 30°38' W 091°17'8 7.5
2015-Apr-26 05:29N 30°45' W 091°22'9 7.9
2015-Apr-26 04:18N 30°44' W 091°33'  
2015-Apr-19 14:33N 30°03' W 090°31'0 0.0
2015-Apr-19 13:33N 30°03' W 090°31'19 0.4
2015-Apr-17 14:21N 29°57' W 090°10'3 3.8
2015-Apr-17 13:33N 29°55' W 090°08'5 4.8
2015-Apr-17 12:33N 29°57' W 090°03'3 3.3
2015-Apr-17 11:32N 29°56' W 089°59'  

Dump ship's entire track history